sensor_id;sensor_type;location;lat;lon;timestamp;pressure;altitude;pressure_sealevel;temperature;humidity
37832;BME280;23671;38.090;-122.570;2023-05-24T00:01:01;100897.16;;;24.90;42.08
37832;BME280;23671;38.090;-122.570;2023-05-24T00:03:28;100904.22;;;24.85;42.20
37832;BME280;23671;38.090;-122.570;2023-05-24T00:06:03;100902.13;;;24.93;41.93
37832;BME280;23671;38.090;-122.570;2023-05-24T00:08:35;100907.31;;;24.82;42.07
37832;BME280;23671;38.090;-122.570;2023-05-24T00:11:02;100904.41;;;24.90;42.35
37832;BME280;23671;38.090;-122.570;2023-05-24T00:13:29;100906.94;;;24.72;41.59
37832;BME280;23671;38.090;-122.570;2023-05-24T00:15:56;100911.91;;;24.94;41.88
37832;BME280;23671;38.090;-122.570;2023-05-24T00:18:23;100912.69;;;25.21;41.47
37832;BME280;23671;38.090;-122.570;2023-05-24T00:20:51;100910.53;;;25.36;41.82
37832;BME280;23671;38.090;-122.570;2023-05-24T00:23:18;100925.09;;;25.48;42.02
37832;BME280;23671;38.090;-122.570;2023-05-24T00:25:46;100921.56;;;25.54;41.80
37832;BME280;23671;38.090;-122.570;2023-05-24T00:28:13;100924.25;;;25.61;42.20
37832;BME280;23671;38.090;-122.570;2023-05-24T00:30:40;100921.31;;;25.62;42.05
37832;BME280;23671;38.090;-122.570;2023-05-24T00:33:07;100919.22;;;25.64;42.28
37832;BME280;23671;38.090;-122.570;2023-05-24T00:35:34;100917.94;;;25.67;42.18
37832;BME280;23671;38.090;-122.570;2023-05-24T00:38:01;100927.53;;;25.69;42.41
37832;BME280;23671;38.090;-122.570;2023-05-24T00:40:28;100927.97;;;25.66;42.49
37832;BME280;23671;38.090;-122.570;2023-05-24T00:42:55;100922.56;;;25.66;42.37
37832;BME280;23671;38.090;-122.570;2023-05-24T00:45:22;100920.88;;;25.65;42.47
37832;BME280;23671;38.090;-122.570;2023-05-24T00:47:49;100925.44;;;25.65;42.44
37832;BME280;23671;38.090;-122.570;2023-05-24T00:50:17;100921.94;;;25.64;42.64
37832;BME280;23671;38.090;-122.570;2023-05-24T00:52:44;100923.19;;;25.62;42.46
37832;BME280;23671;38.090;-122.570;2023-05-24T00:55:13;100923.41;;;25.60;42.77
37832;BME280;23671;38.090;-122.570;2023-05-24T00:57:40;100918.41;;;25.57;42.93
37832;BME280;23671;38.090;-122.570;2023-05-24T01:00:08;100911.97;;;25.58;43.09
37832;BME280;23671;38.090;-122.570;2023-05-24T01:02:36;100916.75;;;25.56;42.80
37832;BME280;23671;38.090;-122.570;2023-05-24T01:05:04;100911.16;;;25.51;42.95
37832;BME280;23671;38.090;-122.570;2023-05-24T01:08:07;100916.56;;;25.51;42.99
37832;BME280;23671;38.090;-122.570;2023-05-24T01:11:11;100905.34;;;25.48;43.26
37832;BME280;23671;38.090;-122.570;2023-05-24T01:13:58;100903.69;;;25.47;43.16
37832;BME280;23671;38.090;-122.570;2023-05-24T01:16:39;100902.03;;;25.46;43.30
37832;BME280;23671;38.090;-122.570;2023-05-24T01:27:47;100905.78;;;25.32;43.42
37832;BME280;23671;38.090;-122.570;2023-05-24T01:30:15;100905.97;;;25.30;43.28
37832;BME280;23671;38.090;-122.570;2023-05-24T01:32:46;100902.25;;;25.24;43.18
37832;BME280;23671;38.090;-122.570;2023-05-24T01:35:13;100906.25;;;25.22;43.16
37832;BME280;23671;38.090;-122.570;2023-05-24T01:37:40;100905.19;;;25.16;43.52
37832;BME280;23671;38.090;-122.570;2023-05-24T01:40:08;100902.09;;;25.13;43.47
37832;BME280;23671;38.090;-122.570;2023-05-24T01:42:47;100902.53;;;25.10;43.32
37832;BME280;23671;38.090;-122.570;2023-05-24T01:45:51;100899.41;;;25.06;43.07
37832;BME280;23671;38.090;-122.570;2023-05-24T01:51:22;100894.44;;;24.97;43.29
37832;BME280;23671;38.090;-122.570;2023-05-24T01:53:51;100896.53;;;24.95;43.21
37832;BME280;23671;38.090;-122.570;2023-05-24T01:56:20;100892.97;;;24.88;42.90
37832;BME280;23671;38.090;-122.570;2023-05-24T01:58:50;100895.06;;;24.86;43.25
37832;BME280;23671;38.090;-122.570;2023-05-24T02:01:19;100887.81;;;24.80;43.04
37832;BME280;23671;38.090;-122.570;2023-05-24T02:03:46;100889.91;;;24.78;43.13
37832;BME280;23671;38.090;-122.570;2023-05-24T02:06:13;100895.69;;;24.75;42.85
37832;BME280;23671;38.090;-122.570;2023-05-24T02:08:40;100888.19;;;24.70;42.87
37832;BME280;23671;38.090;-122.570;2023-05-24T02:11:07;100890.69;;;24.65;42.95
37832;BME280;23671;38.090;-122.570;2023-05-24T02:13:34;100896.53;;;24.62;42.67
37832;BME280;23671;38.090;-122.570;2023-05-24T02:16:01;100899.00;;;24.57;42.67
37832;BME280;23671;38.090;-122.570;2023-05-24T02:18:30;100899.44;;;24.54;42.36
37832;BME280;23671;38.090;-122.570;2023-05-24T02:21:01;100899.41;;;24.48;42.49
37832;BME280;23671;38.090;-122.570;2023-05-24T02:23:28;100903.56;;;24.44;42.00
37832;BME280;23671;38.090;-122.570;2023-05-24T02:25:56;100907.91;;;24.38;42.03
37832;BME280;23671;38.090;-122.570;2023-05-24T02:28:24;100909.38;;;24.34;41.61
37832;BME280;23671;38.090;-122.570;2023-05-24T02:30:51;100903.75;;;24.29;41.51
37832;BME280;23671;38.090;-122.570;2023-05-24T02:33:18;100910.59;;;24.25;41.64
37832;BME280;23671;38.090;-122.570;2023-05-24T02:35:51;100906.03;;;24.19;41.49
37832;BME280;23671;38.090;-122.570;2023-05-24T02:38:18;100913.06;;;24.13;41.10
37832;BME280;23671;38.090;-122.570;2023-05-24T02:40:45;100909.13;;;24.09;41.27
37832;BME280;23671;38.090;-122.570;2023-05-24T02:43:12;100912.63;;;24.03;40.92
37832;BME280;23671;38.090;-122.570;2023-05-24T02:45:41;100904.31;;;23.98;40.77
37832;BME280;23671;38.090;-122.570;2023-05-24T02:48:08;100913.00;;;23.94;40.91
37832;BME280;23671;38.090;-122.570;2023-05-24T02:50:35;100909.25;;;23.88;40.65
37832;BME280;23671;38.090;-122.570;2023-05-24T02:53:02;100908.41;;;23.81;40.77
37832;BME280;23671;38.090;-122.570;2023-05-24T02:55:29;100907.16;;;23.77;40.67
37832;BME280;23671;38.090;-122.570;2023-05-24T02:57:59;100908.78;;;23.72;40.52
37832;BME280;23671;38.090;-122.570;2023-05-24T03:00:26;100911.03;;;23.68;40.70
37832;BME280;23671;38.090;-122.570;2023-05-24T03:02:53;100904.78;;;23.61;40.71
37832;BME280;23671;38.090;-122.570;2023-05-24T03:05:23;100904.16;;;23.59;40.69
37832;BME280;23671;38.090;-122.570;2023-05-24T03:07:50;100903.31;;;23.52;40.41
37832;BME280;23671;38.090;-122.570;2023-05-24T03:10:17;100907.63;;;23.47;40.39
37832;BME280;23671;38.090;-122.570;2023-05-24T03:12:44;100906.97;;;23.38;40.55
37832;BME280;23671;38.090;-122.570;2023-05-24T03:15:11;100913.97;;;23.32;40.37
37832;BME280;23671;38.090;-122.570;2023-05-24T03:17:38;100920.97;;;23.27;40.62
37832;BME280;23671;38.090;-122.570;2023-05-24T03:20:06;100923.41;;;23.22;40.50
37832;BME280;23671;38.090;-122.570;2023-05-24T03:22:33;100932.31;;;23.16;40.46
37832;BME280;23671;38.090;-122.570;2023-05-24T03:25:00;100930.00;;;23.13;40.48
37832;BME280;23671;38.090;-122.570;2023-05-24T03:27:27;100924.75;;;23.05;40.41
37832;BME280;23671;38.090;-122.570;2023-05-24T03:29:54;100936.72;;;22.96;40.53
37832;BME280;23671;38.090;-122.570;2023-05-24T03:32:21;100934.81;;;22.90;40.64
37832;BME280;23671;38.090;-122.570;2023-05-24T03:34:49;100937.25;;;22.85;40.43
37832;BME280;23671;38.090;-122.570;2023-05-24T03:37:16;100943.63;;;22.77;40.61
37832;BME280;23671;38.090;-122.570;2023-05-24T03:39:43;100952.69;;;22.70;40.61
37832;BME280;23671;38.090;-122.570;2023-05-24T03:42:10;100961.31;;;22.65;40.83
37832;BME280;23671;38.090;-122.570;2023-05-24T03:44:37;100958.56;;;22.58;40.63
37832;BME280;23671;38.090;-122.570;2023-05-24T03:47:05;100957.66;;;22.51;40.50
37832;BME280;23671;38.090;-122.570;2023-05-24T03:49:32;100957.97;;;22.42;40.86
37832;BME280;23671;38.090;-122.570;2023-05-24T03:51:59;100960.38;;;22.37;40.88
37832;BME280;23671;38.090;-122.570;2023-05-24T03:54:26;100961.75;;;22.26;40.98
37832;BME280;23671;38.090;-122.570;2023-05-24T03:56:53;100964.53;;;22.18;40.82
37832;BME280;23671;38.090;-122.570;2023-05-24T03:59:20;100965.69;;;22.09;40.88
37832;BME280;23671;38.090;-122.570;2023-05-24T04:01:48;100974.72;;;22.02;41.03
37832;BME280;23671;38.090;-122.570;2023-05-24T04:04:15;100971.94;;;21.95;41.08
37832;BME280;23671;38.090;-122.570;2023-05-24T04:06:42;100979.28;;;21.87;40.96
37832;BME280;23671;38.090;-122.570;2023-05-24T04:09:09;100983.19;;;21.84;41.08
37832;BME280;23671;38.090;-122.570;2023-05-24T04:11:36;100982.97;;;21.71;40.73
37832;BME280;23671;38.090;-122.570;2023-05-24T04:14:03;100974.81;;;21.64;41.15
37832;BME280;23671;38.090;-122.570;2023-05-24T04:16:30;100968.53;;;21.57;41.13
37832;BME280;23671;38.090;-122.570;2023-05-24T04:19:01;100972.16;;;21.50;41.14
37832;BME280;23671;38.090;-122.570;2023-05-24T04:21:29;100976.75;;;21.41;40.81
37832;BME280;23671;38.090;-122.570;2023-05-24T04:23:57;100980.19;;;21.35;40.88
37832;BME280;23671;38.090;-122.570;2023-05-24T04:26:29;100985.47;;;21.29;40.95
37832;BME280;23671;38.090;-122.570;2023-05-24T04:28:57;100990.09;;;21.20;40.93
37832;BME280;23671;38.090;-122.570;2023-05-24T04:31:24;101001.56;;;21.14;40.40
37832;BME280;23671;38.090;-122.570;2023-05-24T04:33:51;100998.75;;;21.08;41.29
37832;BME280;23671;38.090;-122.570;2023-05-24T04:36:18;100998.66;;;21.01;41.10
37832;BME280;23671;38.090;-122.570;2023-05-24T04:38:45;100998.69;;;20.93;41.12
37832;BME280;23671;38.090;-122.570;2023-05-24T04:41:13;101007.66;;;20.86;41.09
37832;BME280;23671;38.090;-122.570;2023-05-24T04:43:40;101006.72;;;20.78;40.75
37832;BME280;23671;38.090;-122.570;2023-05-24T04:46:07;101011.97;;;20.72;40.81
37832;BME280;23671;38.090;-122.570;2023-05-24T04:48:34;101015.19;;;20.67;40.86
37832;BME280;23671;38.090;-122.570;2023-05-24T04:51:01;101010.06;;;20.58;40.82
37832;BME280;23671;38.090;-122.570;2023-05-24T04:53:28;101017.34;;;20.49;41.10
37832;BME280;23671;38.090;-122.570;2023-05-24T04:55:55;101026.44;;;20.40;41.15
37832;BME280;23671;38.090;-122.570;2023-05-24T04:58:22;101020.59;;;20.37;41.13
37832;BME280;23671;38.090;-122.570;2023-05-24T05:00:50;101006.03;;;20.31;41.03
37832;BME280;23671;38.090;-122.570;2023-05-24T05:03:17;101013.13;;;20.24;41.03
37832;BME280;23671;38.090;-122.570;2023-05-24T05:05:44;101007.78;;;20.16;41.10
37832;BME280;23671;38.090;-122.570;2023-05-24T05:08:12;101007.50;;;20.11;41.27
37832;BME280;23671;38.090;-122.570;2023-05-24T05:10:39;101011.16;;;20.10;41.33
37832;BME280;23671;38.090;-122.570;2023-05-24T05:13:06;101016.72;;;20.09;41.14
37832;BME280;23671;38.090;-122.570;2023-05-24T05:15:33;101013.69;;;20.04;41.04
37832;BME280;23671;38.090;-122.570;2023-05-24T05:18:00;101011.38;;;20.01;41.21
37832;BME280;23671;38.090;-122.570;2023-05-24T05:20:27;101014.09;;;19.92;41.16
37832;BME280;23671;38.090;-122.570;2023-05-24T05:22:54;101025.03;;;19.83;41.26
37832;BME280;23671;38.090;-122.570;2023-05-24T05:25:22;101018.16;;;19.80;41.39
37832;BME280;23671;38.090;-122.570;2023-05-24T05:27:49;101022.53;;;19.73;41.19
37832;BME280;23671;38.090;-122.570;2023-05-24T05:30:16;101031.94;;;19.61;41.51
37832;BME280;23671;38.090;-122.570;2023-05-24T05:32:43;101024.44;;;19.57;41.47
37832;BME280;23671;38.090;-122.570;2023-05-24T05:35:10;101026.13;;;19.50;41.64
37832;BME280;23671;38.090;-122.570;2023-05-24T05:37:37;101020.81;;;19.42;41.69
37832;BME280;23671;38.090;-122.570;2023-05-24T05:40:04;101030.00;;;19.39;41.75
37832;BME280;23671;38.090;-122.570;2023-05-24T05:42:31;101029.53;;;19.36;41.66
37832;BME280;23671;38.090;-122.570;2023-05-24T05:44:59;101029.31;;;19.29;42.04
37832;BME280;23671;38.090;-122.570;2023-05-24T05:47:26;101014.13;;;19.22;41.99
37832;BME280;23671;38.090;-122.570;2023-05-24T05:49:53;101012.09;;;19.16;42.01
37832;BME280;23671;38.090;-122.570;2023-05-24T05:52:20;101006.25;;;19.12;41.80
37832;BME280;23671;38.090;-122.570;2023-05-24T05:54:47;101013.13;;;19.07;41.90
37832;BME280;23671;38.090;-122.570;2023-05-24T05:57:14;101007.59;;;19.00;41.89
37832;BME280;23671;38.090;-122.570;2023-05-24T05:59:41;101021.50;;;18.95;42.08
37832;BME280;23671;38.090;-122.570;2023-05-24T06:02:09;101021.34;;;18.89;42.00
37832;BME280;23671;38.090;-122.570;2023-05-24T06:04:38;101015.63;;;18.84;42.21
37832;BME280;23671;38.090;-122.570;2023-05-24T06:07:05;101012.44;;;18.80;42.22
37832;BME280;23671;38.090;-122.570;2023-05-24T06:09:32;101011.63;;;18.72;42.34
37832;BME280;23671;38.090;-122.570;2023-05-24T06:11:59;101028.00;;;18.69;42.34
37832;BME280;23671;38.090;-122.570;2023-05-24T06:14:26;101033.88;;;18.64;42.21
37832;BME280;23671;38.090;-122.570;2023-05-24T06:16:53;101032.16;;;18.55;42.35
37832;BME280;23671;38.090;-122.570;2023-05-24T06:19:20;101033.50;;;18.51;42.52
37832;BME280;23671;38.090;-122.570;2023-05-24T06:21:48;101024.16;;;18.47;42.42
37832;BME280;23671;38.090;-122.570;2023-05-24T06:24:17;101020.13;;;18.43;42.45
37832;BME280;23671;38.090;-122.570;2023-05-24T06:26:51;101020.75;;;18.37;42.45
37832;BME280;23671;38.090;-122.570;2023-05-24T06:29:19;101010.72;;;18.31;42.54
37832;BME280;23671;38.090;-122.570;2023-05-24T06:31:47;100998.84;;;18.26;42.72
37832;BME280;23671;38.090;-122.570;2023-05-24T06:34:15;100997.31;;;18.23;42.85
37832;BME280;23671;38.090;-122.570;2023-05-24T06:36:47;100997.13;;;18.16;42.92
37832;BME280;23671;38.090;-122.570;2023-05-24T06:39:16;100988.75;;;18.11;42.75
37832;BME280;23671;38.090;-122.570;2023-05-24T06:41:44;100994.59;;;18.07;42.99
37832;BME280;23671;38.090;-122.570;2023-05-24T06:44:12;100994.41;;;18.00;42.66
37832;BME280;23671;38.090;-122.570;2023-05-24T06:46:39;100988.72;;;17.95;42.91
37832;BME280;23671;38.090;-122.570;2023-05-24T06:49:06;100984.84;;;17.90;42.95
37832;BME280;23671;38.090;-122.570;2023-05-24T06:51:34;100991.38;;;17.87;43.06
37832;BME280;23671;38.090;-122.570;2023-05-24T06:54:03;101004.69;;;17.79;42.89
37832;BME280;23671;38.090;-122.570;2023-05-24T06:56:30;101015.00;;;17.74;42.96
37832;BME280;23671;38.090;-122.570;2023-05-24T06:58:59;101024.19;;;17.72;43.05
37832;BME280;23671;38.090;-122.570;2023-05-24T07:01:27;101021.81;;;17.69;43.14
37832;BME280;23671;38.090;-122.570;2023-05-24T07:03:55;101020.97;;;17.60;43.07
37832;BME280;23671;38.090;-122.570;2023-05-24T07:06:22;101022.13;;;17.58;43.36
37832;BME280;23671;38.090;-122.570;2023-05-24T07:08:50;101036.09;;;17.52;43.06
37832;BME280;23671;38.090;-122.570;2023-05-24T07:11:17;101047.09;;;17.49;43.05
37832;BME280;23671;38.090;-122.570;2023-05-24T07:13:44;101040.53;;;17.43;43.27
37832;BME280;23671;38.090;-122.570;2023-05-24T07:16:11;101051.00;;;17.37;43.24
37832;BME280;23671;38.090;-122.570;2023-05-24T07:18:38;101052.28;;;17.33;43.56
37832;BME280;23671;38.090;-122.570;2023-05-24T07:21:07;101053.91;;;17.25;43.70
37832;BME280;23671;38.090;-122.570;2023-05-24T07:23:36;101047.06;;;17.23;43.32
37832;BME280;23671;38.090;-122.570;2023-05-24T07:26:03;101049.50;;;17.16;43.43
37832;BME280;23671;38.090;-122.570;2023-05-24T07:28:31;101045.34;;;17.14;43.54
37832;BME280;23671;38.090;-122.570;2023-05-24T07:30:58;101042.59;;;17.06;43.83
37832;BME280;23671;38.090;-122.570;2023-05-24T07:33:26;101044.56;;;17.04;43.50
37832;BME280;23671;38.090;-122.570;2023-05-24T07:35:53;101042.53;;;16.98;43.64
37832;BME280;23671;38.090;-122.570;2023-05-24T07:38:20;101041.31;;;16.92;43.86
37832;BME280;23671;38.090;-122.570;2023-05-24T07:40:48;101046.25;;;16.87;43.71
37832;BME280;23671;38.090;-122.570;2023-05-24T07:43:15;101049.25;;;16.84;43.82
37832;BME280;23671;38.090;-122.570;2023-05-24T07:45:42;101041.69;;;16.80;43.75
37832;BME280;23671;38.090;-122.570;2023-05-24T07:48:09;101040.47;;;16.74;44.17
37832;BME280;23671;38.090;-122.570;2023-05-24T07:50:36;101044.31;;;16.72;44.21
37832;BME280;23671;38.090;-122.570;2023-05-24T07:53:03;101035.06;;;16.66;44.29
37832;BME280;23671;38.090;-122.570;2023-05-24T07:55:31;101041.56;;;16.64;43.94
37832;BME280;23671;38.090;-122.570;2023-05-24T07:57:59;101036.00;;;16.57;44.30
37832;BME280;23671;38.090;-122.570;2023-05-24T08:00:26;101043.63;;;16.52;44.14
37832;BME280;23671;38.090;-122.570;2023-05-24T08:02:53;101032.41;;;16.49;44.47
37832;BME280;23671;38.090;-122.570;2023-05-24T08:05:20;101033.00;;;16.43;44.58
37832;BME280;23671;38.090;-122.570;2023-05-24T08:07:47;101029.75;;;16.39;44.21
37832;BME280;23671;38.090;-122.570;2023-05-24T08:10:14;101030.06;;;16.36;44.23
37832;BME280;23671;38.090;-122.570;2023-05-24T08:12:42;101035.84;;;16.31;44.24
37832;BME280;23671;38.090;-122.570;2023-05-24T08:15:09;101025.66;;;16.27;44.62
37832;BME280;23671;38.090;-122.570;2023-05-24T08:17:38;101021.78;;;16.21;44.39
37832;BME280;23671;38.090;-122.570;2023-05-24T08:20:05;101024.56;;;16.20;44.40
37832;BME280;23671;38.090;-122.570;2023-05-24T08:22:35;101022.22;;;16.17;44.31
37832;BME280;23671;38.090;-122.570;2023-05-24T08:25:03;101025.31;;;16.12;44.60
37832;BME280;23671;38.090;-122.570;2023-05-24T08:27:30;101018.91;;;16.05;44.80
37832;BME280;23671;38.090;-122.570;2023-05-24T08:29:58;101026.38;;;16.02;44.81
37832;BME280;23671;38.090;-122.570;2023-05-24T08:32:25;101024.69;;;16.01;44.79
37832;BME280;23671;38.090;-122.570;2023-05-24T08:34:52;101021.78;;;15.94;44.97
37832;BME280;23671;38.090;-122.570;2023-05-24T08:37:21;101029.25;;;15.91;44.95
37832;BME280;23671;38.090;-122.570;2023-05-24T08:39:49;101032.19;;;15.88;44.84
37832;BME280;23671;38.090;-122.570;2023-05-24T08:42:16;101035.16;;;15.85;44.69
37832;BME280;23671;38.090;-122.570;2023-05-24T08:44:57;101031.78;;;15.83;44.70
37832;BME280;23671;38.090;-122.570;2023-05-24T08:47:29;101043.03;;;15.77;45.33
37832;BME280;23671;38.090;-122.570;2023-05-24T08:49:57;101033.66;;;15.73;44.93
37832;BME280;23671;38.090;-122.570;2023-05-24T08:52:25;101024.28;;;15.69;45.22
37832;BME280;23671;38.090;-122.570;2023-05-24T08:54:53;101026.56;;;15.64;45.02
37832;BME280;23671;38.090;-122.570;2023-05-24T08:57:21;101027.84;;;15.60;45.24
37832;BME280;23671;38.090;-122.570;2023-05-24T08:59:49;101023.63;;;15.57;45.18
37832;BME280;23671;38.090;-122.570;2023-05-24T09:02:16;101029.25;;;15.54;45.07
37832;BME280;23671;38.090;-122.570;2023-05-24T09:04:44;101027.03;;;15.50;45.04
37832;BME280;23671;38.090;-122.570;2023-05-24T09:07:15;101026.47;;;15.46;45.11
37832;BME280;23671;38.090;-122.570;2023-05-24T09:09:49;101034.63;;;15.44;45.34
37832;BME280;23671;38.090;-122.570;2023-05-24T09:12:20;101040.47;;;15.38;45.22
37832;BME280;23671;38.090;-122.570;2023-05-24T09:14:49;101034.72;;;15.33;45.39
37832;BME280;23671;38.090;-122.570;2023-05-24T09:17:17;101044.66;;;15.31;45.31
37832;BME280;23671;38.090;-122.570;2023-05-24T09:19:46;101044.97;;;15.28;45.45
37832;BME280;23671;38.090;-122.570;2023-05-24T09:22:14;101049.75;;;15.25;45.42
37832;BME280;23671;38.090;-122.570;2023-05-24T09:24:49;101045.84;;;15.19;45.47
37832;BME280;23671;38.090;-122.570;2023-05-24T09:27:18;101044.84;;;15.20;45.50
37832;BME280;23671;38.090;-122.570;2023-05-24T09:29:49;101040.53;;;15.19;45.45
37832;BME280;23671;38.090;-122.570;2023-05-24T09:32:20;101049.19;;;15.12;45.33
37832;BME280;23671;38.090;-122.570;2023-05-24T09:34:51;101050.47;;;15.08;45.57
37832;BME280;23671;38.090;-122.570;2023-05-24T09:37:23;101061.94;;;15.08;45.31
37832;BME280;23671;38.090;-122.570;2023-05-24T09:39:53;101060.69;;;15.03;45.36
37832;BME280;23671;38.090;-122.570;2023-05-24T09:42:24;101066.16;;;15.01;45.63
37832;BME280;23671;38.090;-122.570;2023-05-24T09:45:06;101058.72;;;14.95;45.68
37832;BME280;23671;38.090;-122.570;2023-05-24T09:47:39;101055.94;;;14.97;45.77
37832;BME280;23671;38.090;-122.570;2023-05-24T09:50:12;101066.00;;;14.93;45.69
37832;BME280;23671;38.090;-122.570;2023-05-24T09:52:40;101064.47;;;14.91;45.64
37832;BME280;23671;38.090;-122.570;2023-05-24T09:55:18;101070.22;;;14.86;45.95
37832;BME280;23671;38.090;-122.570;2023-05-24T09:58:03;101066.84;;;14.84;45.93
37832;BME280;23671;38.090;-122.570;2023-05-24T10:00:33;101068.81;;;14.82;45.83
37832;BME280;23671;38.090;-122.570;2023-05-24T10:03:04;101069.06;;;14.79;45.76
37832;BME280;23671;38.090;-122.570;2023-05-24T10:05:37;101074.53;;;14.78;46.14
37832;BME280;23671;38.090;-122.570;2023-05-24T10:08:05;101060.56;;;14.76;46.11
37832;BME280;23671;38.090;-122.570;2023-05-24T10:10:32;101062.34;;;14.75;46.20
37832;BME280;23671;38.090;-122.570;2023-05-24T10:13:00;101062.94;;;14.69;46.16
37832;BME280;23671;38.090;-122.570;2023-05-24T10:15:28;101074.38;;;14.70;46.33
37832;BME280;23671;38.090;-122.570;2023-05-24T10:17:56;101066.72;;;14.67;46.41
37832;BME280;23671;38.090;-122.570;2023-05-24T10:20:24;101067.81;;;14.64;46.28
37832;BME280;23671;38.090;-122.570;2023-05-24T10:22:58;101074.13;;;14.63;46.61
37832;BME280;23671;38.090;-122.570;2023-05-24T10:25:28;101066.16;;;14.63;46.48
37832;BME280;23671;38.090;-122.570;2023-05-24T10:27:57;101065.44;;;14.61;46.62
37832;BME280;23671;38.090;-122.570;2023-05-24T10:30:35;101065.72;;;14.58;46.40
37832;BME280;23671;38.090;-122.570;2023-05-24T10:33:07;101059.44;;;14.59;46.42
37832;BME280;23671;38.090;-122.570;2023-05-24T10:35:36;101055.22;;;14.56;46.48
37832;BME280;23671;38.090;-122.570;2023-05-24T10:38:08;101051.88;;;14.54;46.94
37832;BME280;23671;38.090;-122.570;2023-05-24T10:40:41;101041.38;;;14.53;46.75
37832;BME280;23671;38.090;-122.570;2023-05-24T10:43:09;101043.03;;;14.54;46.66
37832;BME280;23671;38.090;-122.570;2023-05-24T10:45:40;101042.50;;;14.50;46.90
37832;BME280;23671;38.090;-122.570;2023-05-24T10:50:44;101035.66;;;14.48;46.97
37832;BME280;23671;38.090;-122.570;2023-05-24T10:53:16;101036.63;;;14.47;46.84
37832;BME280;23671;38.090;-122.570;2023-05-24T10:55:53;101029.06;;;14.42;46.66
37832;BME280;23671;38.090;-122.570;2023-05-24T10:58:44;101036.91;;;14.44;46.99
37832;BME280;23671;38.090;-122.570;2023-05-24T11:01:35;101033.53;;;14.42;46.84
37832;BME280;23671;38.090;-122.570;2023-05-24T11:04:14;101031.16;;;14.39;47.02
37832;BME280;23671;38.090;-122.570;2023-05-24T11:06:47;101030.34;;;14.38;46.78
37832;BME280;23671;38.090;-122.570;2023-05-24T11:09:17;101042.78;;;14.38;46.63
37832;BME280;23671;38.090;-122.570;2023-05-24T11:11:48;101033.38;;;14.34;47.05
37832;BME280;23671;38.090;-122.570;2023-05-24T11:14:24;101036.19;;;14.32;47.16
37832;BME280;23671;38.090;-122.570;2023-05-24T11:16:52;101044.41;;;14.29;46.71
37832;BME280;23671;38.090;-122.570;2023-05-24T11:19:34;101047.06;;;14.29;46.60
37832;BME280;23671;38.090;-122.570;2023-05-24T11:22:07;101046.38;;;14.27;46.66
37832;BME280;23671;38.090;-122.570;2023-05-24T11:24:35;101046.38;;;14.27;46.80
37832;BME280;23671;38.090;-122.570;2023-05-24T11:27:02;101047.47;;;14.25;47.03
37832;BME280;23671;38.090;-122.570;2023-05-24T11:29:30;101054.75;;;14.23;47.04
37832;BME280;23671;38.090;-122.570;2023-05-24T11:31:59;101061.00;;;14.22;47.05
37832;BME280;23671;38.090;-122.570;2023-05-24T11:34:35;101064.66;;;14.21;47.12
37832;BME280;23671;38.090;-122.570;2023-05-24T11:37:02;101062.09;;;14.19;46.71
37832;BME280;23671;38.090;-122.570;2023-05-24T11:39:37;101066.72;;;14.17;47.30
37832;BME280;23671;38.090;-122.570;2023-05-24T11:42:06;101074.56;;;14.19;47.07
37832;BME280;23671;38.090;-122.570;2023-05-24T11:44:34;101070.50;;;14.15;47.11
37832;BME280;23671;38.090;-122.570;2023-05-24T11:47:07;101076.66;;;14.15;47.22
37832;BME280;23671;38.090;-122.570;2023-05-24T11:49:34;101082.09;;;14.14;46.98
37832;BME280;23671;38.090;-122.570;2023-05-24T11:52:01;101082.38;;;14.11;47.02
37832;BME280;23671;38.090;-122.570;2023-05-24T11:54:29;101082.38;;;14.11;47.38
37832;BME280;23671;38.090;-122.570;2023-05-24T11:56:58;101082.63;;;14.08;47.51
37832;BME280;23671;38.090;-122.570;2023-05-24T11:59:27;101081.53;;;14.10;47.52
37832;BME280;23671;38.090;-122.570;2023-05-24T12:02:02;101095.78;;;14.09;47.64
37832;BME280;23671;38.090;-122.570;2023-05-24T12:04:31;101085.28;;;14.08;47.57
37832;BME280;23671;38.090;-122.570;2023-05-24T12:06:58;101084.19;;;14.10;47.21
37832;BME280;23671;38.090;-122.570;2023-05-24T12:09:26;101086.25;;;14.07;47.54
37832;BME280;23671;38.090;-122.570;2023-05-24T12:11:54;101094.94;;;14.09;47.44
37832;BME280;23671;38.090;-122.570;2023-05-24T12:14:28;101090.72;;;14.06;47.63
37832;BME280;23671;38.090;-122.570;2023-05-24T12:16:58;101097.84;;;14.06;47.91
37832;BME280;23671;38.090;-122.570;2023-05-24T12:19:30;101107.38;;;14.08;47.25
37832;BME280;23671;38.090;-122.570;2023-05-24T12:22:05;101098.84;;;14.05;47.71
37832;BME280;23671;38.090;-122.570;2023-05-24T12:24:33;101096.88;;;14.07;47.49
37832;BME280;23671;38.090;-122.570;2023-05-24T12:27:02;101098.56;;;14.08;47.72
37832;BME280;23671;38.090;-122.570;2023-05-24T12:29:34;101106.50;;;14.08;47.57
37832;BME280;23671;38.090;-122.570;2023-05-24T12:32:02;101106.41;;;14.09;47.76
37832;BME280;23671;38.090;-122.570;2023-05-24T12:34:29;101113.53;;;14.09;47.43
37832;BME280;23671;38.090;-122.570;2023-05-24T12:36:58;101114.38;;;14.09;47.45
37832;BME280;23671;38.090;-122.570;2023-05-24T12:39:27;101109.06;;;14.09;47.59
37832;BME280;23671;38.090;-122.570;2023-05-24T12:41:57;101116.19;;;14.09;48.07
37832;BME280;23671;38.090;-122.570;2023-05-24T12:44:26;101118.69;;;14.10;47.79